createdAt,value
2018-04-22T00:02:18.670Z,23.13
2018-04-22T00:05:22.461Z,23.63
2018-04-22T00:08:27.020Z,23.77
2018-04-22T00:11:31.570Z,23.47
2018-04-22T00:14:35.412Z,24.10
2018-04-22T00:17:39.242Z,24.30
2018-04-22T00:20:43.030Z,24.13
2018-04-22T00:23:47.593Z,24.37
2018-04-22T00:26:51.414Z,24.40
2018-04-22T00:29:55.237Z,22.70
2018-04-22T00:32:59.061Z,24.67
2018-04-22T00:36:02.866Z,24.43
2018-04-22T00:39:07.474Z,25.03
2018-04-22T00:42:11.293Z,25.67
2018-04-22T00:45:15.097Z,25.23
2018-04-22T00:48:18.999Z,26.07
2018-04-22T00:51:23.526Z,24.10
2018-04-22T00:54:28.081Z,25.87
2018-04-22T00:57:32.643Z,25.47
2018-04-22T01:00:36.757Z,24.80
2018-04-22T01:03:41.304Z,25.73
2018-04-22T01:06:45.125Z,25.83
2018-04-22T01:09:48.953Z,26.20
2018-04-22T01:12:52.748Z,26.63
2018-04-22T01:15:56.533Z,25.87
2018-04-22T01:19:00.724Z,26.90
2018-04-22T01:22:04.618Z,27.17
2018-04-22T01:25:08.429Z,26.97
2018-04-22T01:28:12.244Z,27.10
2018-04-22T01:31:16.052Z,27.33
2018-04-22T01:34:19.953Z,28.20
2018-04-22T01:37:24.484Z,27.43
2018-04-22T01:40:29.027Z,28.30
2018-04-22T01:43:33.603Z,27.87
2018-04-22T01:46:37.482Z,27.50
2018-04-22T01:49:41.289Z,28.57
2018-04-22T01:52:45.074Z,27.77
2018-04-22T01:55:48.875Z,29.10
2018-04-22T01:58:53.438Z,29.07
2018-04-22T02:01:57.220Z,28.03
2018-04-22T02:05:01.034Z,28.00
2018-04-22T02:08:04.829Z,28.13
2018-04-22T02:11:08.641Z,29.50
2018-04-22T02:14:12.444Z,28.40
2018-04-22T02:17:16.225Z,29.00
2018-04-22T02:20:20.093Z,28.13
2018-04-22T02:23:23.902Z,27.90
2018-04-22T02:26:28.421Z,29.17
2018-04-22T02:29:32.251Z,29.17
2018-04-22T02:32:36.783Z,27.70
2018-04-22T02:35:40.623Z,28.50
2018-04-22T02:38:45.182Z,28.97
2018-04-22T02:41:48.967Z,28.53
2018-04-22T02:44:52.831Z,28.13
2018-04-22T02:47:56.613Z,28.33
2018-04-22T02:51:00.418Z,30.07
2018-04-22T02:54:04.239Z,27.57
2018-04-22T02:57:08.028Z,28.47
2018-04-22T03:00:11.845Z,28.97
2018-04-22T03:03:15.637Z,28.50
2018-04-22T03:06:19.454Z,29.10
2018-04-22T03:09:23.320Z,28.80
2018-04-22T03:12:27.113Z,28.87
2018-04-22T03:15:30.956Z,28.23
2018-04-22T03:18:35.608Z,28.50
2018-04-22T03:21:40.245Z,27.13
2018-04-22T03:24:44.797Z,28.90
2018-04-22T03:27:48.583Z,27.87
2018-04-22T03:30:52.392Z,28.97
2018-04-22T03:33:56.221Z,28.07
2018-04-22T03:37:00.090Z,29.00
2018-04-22T03:40:04.762Z,29.43
2018-04-22T03:43:08.678Z,28.80
2018-04-22T03:46:12.513Z,28.53
2018-04-22T03:49:16.324Z,28.77
2018-04-22T03:52:20.136Z,28.63
2018-04-22T03:55:24.681Z,28.17
2018-04-22T03:58:28.484Z,27.80
2018-04-22T04:01:33.064Z,28.20
2018-04-22T04:04:36.874Z,27.70
2018-04-22T04:07:40.815Z,28.23
2018-04-22T04:10:45.345Z,27.73
2018-04-22T04:13:49.174Z,26.20
2018-04-22T04:16:52.994Z,26.93
2018-04-22T04:20:14.548Z,28.07
2018-04-22T04:23:18.328Z,27.40
2018-04-22T04:30:20.177Z,29.30
2018-04-22T04:33:24.004Z,26.30
2018-04-22T04:36:27.814Z,28.23
2018-04-22T04:39:32.333Z,25.57
2018-04-22T04:42:36.274Z,26.33
2018-04-22T04:45:40.138Z,25.83
2018-04-22T04:48:43.923Z,25.87
2018-04-22T04:51:47.766Z,26.13
2018-04-22T04:54:51.562Z,24.97
2018-04-22T04:57:55.370Z,25.83
2018-04-22T05:00:59.177Z,24.87
2018-04-22T05:04:02.969Z,25.97
2018-04-22T05:07:06.772Z,25.10
2018-04-22T05:10:11.324Z,25.77
2018-04-22T05:13:15.844Z,23.73
2018-04-22T05:16:19.653Z,24.23
2018-04-22T05:19:23.529Z,25.10
2018-04-22T05:22:27.334Z,24.73
2018-04-22T05:25:31.983Z,24.97
2018-04-22T05:28:36.514Z,23.60
2018-04-22T05:31:41.085Z,24.17
2018-04-22T05:34:44.882Z,24.37
2018-04-22T05:37:49.442Z,23.83
2018-04-22T05:40:53.246Z,23.37
2018-04-22T05:43:57.796Z,23.10
2018-04-22T05:47:02.392Z,22.70
2018-04-22T05:50:06.400Z,23.57
2018-04-22T05:53:10.210Z,22.13
2018-04-22T05:56:14.013Z,22.33
2018-04-22T05:59:18.579Z,22.93
2018-04-22T06:02:22.386Z,23.07
2018-04-22T06:05:26.901Z,22.37
2018-04-22T06:08:30.707Z,22.43
2018-04-22T06:11:34.538Z,22.33
2018-04-22T06:14:38.356Z,22.03
2018-04-22T06:17:42.160Z,22.03
2018-04-22T06:20:46.052Z,22.33
2018-04-22T06:23:49.833Z,21.63
2018-04-22T06:26:53.805Z,20.10
2018-04-22T06:29:57.636Z,20.50
2018-04-22T06:33:01.434Z,22.00
2018-04-22T06:36:05.273Z,22.57
2018-04-22T06:39:09.097Z,21.60
2018-04-22T06:42:13.650Z,21.30
2018-04-22T06:45:17.439Z,21.73
2018-04-22T06:48:21.245Z,21.67
2018-04-22T06:51:25.048Z,23.40
2018-04-22T06:54:28.828Z,28.97
2018-04-22T06:57:33.581Z,43.43
2018-04-22T07:00:37.385Z,49.97
2018-04-22T07:03:41.246Z,40.63
2018-04-22T07:06:45.063Z,35.17
2018-04-22T07:09:48.919Z,39.83
2018-04-22T07:12:52.775Z,40.03
2018-04-22T07:15:56.549Z,37.13
2018-04-22T07:19:00.353Z,35.63
2018-04-22T07:22:05.093Z,36.83
2018-04-22T07:25:09.685Z,34.17
2018-04-22T07:28:13.574Z,32.97
2018-04-22T07:31:17.392Z,34.80
2018-04-22T07:34:21.180Z,36.33
2018-04-22T07:37:24.993Z,32.83
2018-04-22T07:40:28.775Z,33.53
2018-04-22T07:43:32.594Z,39.67
2018-04-22T07:46:36.422Z,35.23
2018-04-22T07:49:41.870Z,62.13
2018-04-22T07:52:46.096Z,59.07
2018-04-22T07:55:50.633Z,68.23
2018-04-22T07:58:55.194Z,62.43
2018-04-22T08:01:59.010Z,62.17
2018-04-22T08:05:02.859Z,43.37
2018-04-22T08:08:06.682Z,33.43
2018-04-22T08:11:10.505Z,26.60
2018-04-22T08:14:14.452Z,26.03
2018-04-22T08:17:18.275Z,26.83
2018-04-22T08:20:22.178Z,24.97
2018-04-22T08:23:26.090Z,22.30
2018-04-22T08:26:30.619Z,17.30
2018-04-22T08:29:34.429Z,14.77
2018-04-22T08:32:38.472Z,15.20
2018-04-22T08:35:43.052Z,12.13
2018-04-22T08:38:46.858Z,12.37
2018-04-22T08:41:50.645Z,12.60
2018-04-22T08:44:54.464Z,10.33
2018-04-22T08:47:58.339Z,9.47
2018-04-22T08:51:02.172Z,9.13
2018-04-22T08:54:06.046Z,9.43
2018-04-22T08:57:09.993Z,8.80
2018-04-22T09:00:13.788Z,8.30
2018-04-22T09:03:17.590Z,7.70
2018-04-22T09:06:21.365Z,7.00
2018-04-22T09:09:25.906Z,6.70
2018-04-22T09:12:30.458Z,30.00
2018-04-22T09:15:34.318Z,106.53
2018-04-22T09:18:38.180Z,149.00
2018-04-22T09:21:41.986Z,144.17
2018-04-22T09:24:45.794Z,128.57
2018-04-22T09:27:49.700Z,106.10
2018-04-22T09:30:53.540Z,96.27
2018-04-22T09:33:57.369Z,91.33
2018-04-22T09:37:01.174Z,80.63
2018-04-22T09:40:05.108Z,77.43
2018-04-22T09:43:08.958Z,71.00
2018-04-22T09:46:13.527Z,71.60
2018-04-22T09:49:18.105Z,67.67
2018-04-22T09:52:21.931Z,63.43
2018-04-22T09:55:25.847Z,60.97
2018-04-22T09:58:29.674Z,58.13
2018-04-22T10:01:37.280Z,57.27
2018-04-22T10:04:41.883Z,55.60
2018-04-22T10:07:45.711Z,54.97
2018-04-22T10:10:50.248Z,51.90
2018-04-22T10:13:54.122Z,52.30
2018-04-22T10:16:57.905Z,48.50
2018-04-22T10:20:01.711Z,49.30
2018-04-22T10:23:05.566Z,45.83
2018-04-22T10:26:09.434Z,45.10
2018-04-22T10:29:13.257Z,44.67
2018-04-22T10:32:17.039Z,40.90
2018-04-22T10:35:20.889Z,41.47
2018-04-22T10:38:24.705Z,39.70
2018-04-22T10:41:28.514Z,38.20
2018-04-22T10:44:33.185Z,36.53
2018-04-22T10:47:36.981Z,35.93
2018-04-22T10:50:41.546Z,35.57
2018-04-22T10:53:45.357Z,33.00
2018-04-22T10:56:49.904Z,31.37
2018-04-22T10:59:54.588Z,32.00
2018-04-22T11:02:58.354Z,28.63
2018-04-22T11:06:02.182Z,29.17
2018-04-22T11:09:06.758Z,18.90
2018-04-22T11:12:10.581Z,11.57
2018-04-22T11:15:14.499Z,11.77
2018-04-22T11:18:18.328Z,13.13
2018-04-22T11:21:22.117Z,12.03
2018-04-22T11:24:25.919Z,9.23
2018-04-22T11:27:29.717Z,8.63
2018-04-22T11:30:33.522Z,7.53
2018-04-22T11:33:37.475Z,11.87
2018-04-22T11:36:41.606Z,13.43
2018-04-22T11:39:45.442Z,11.83
2018-04-22T11:42:49.324Z,8.97
2018-04-22T11:45:53.145Z,7.10
2018-04-22T11:48:57.800Z,7.10
2018-04-22T11:52:01.589Z,6.80
2018-04-22T11:55:05.618Z,6.50
2018-04-22T11:58:11.062Z,6.13
2018-04-22T12:01:14.893Z,6.23
2018-04-22T12:04:18.699Z,5.90
2018-04-22T12:07:22.479Z,5.40
2018-04-22T12:10:27.020Z,4.87
2018-04-22T12:13:31.575Z,5.33
2018-04-22T12:16:35.397Z,4.37
2018-04-22T12:19:39.411Z,4.17
2018-04-22T12:22:43.202Z,4.77
2018-04-22T12:25:47.045Z,5.30
2018-04-22T12:28:51.568Z,5.40
2018-04-22T12:31:55.405Z,5.17
2018-04-22T12:34:59.194Z,4.90
2018-04-22T12:38:02.978Z,4.77
2018-04-22T12:41:06.788Z,5.23
2018-04-22T12:44:11.546Z,5.23
2018-04-22T12:47:15.328Z,5.27
2018-04-22T12:50:19.140Z,8.10
2018-04-22T12:53:22.924Z,9.90
2018-04-22T12:56:26.722Z,7.90
2018-04-22T12:59:31.283Z,7.53
2018-04-22T13:02:35.850Z,6.50
2018-04-22T13:05:39.674Z,6.33
2018-04-22T13:08:43.460Z,5.90
2018-04-22T13:11:48.017Z,6.00
2018-04-22T13:14:51.869Z,6.70
2018-04-22T13:17:55.673Z,6.33
2018-04-22T13:20:59.493Z,6.53
2018-04-22T13:24:03.274Z,6.87
2018-04-22T13:27:07.182Z,7.43
2018-04-22T13:30:11.004Z,7.97
2018-04-22T13:33:14.789Z,6.70
2018-04-22T13:36:18.594Z,7.43
2018-04-22T13:39:23.121Z,6.13
2018-04-22T13:42:26.925Z,6.10
2018-04-22T13:45:30.736Z,5.73
2018-04-22T13:48:34.727Z,5.20
2018-04-22T13:51:39.277Z,5.07
2018-04-22T13:54:43.085Z,4.87
2018-04-22T13:57:47.605Z,4.70
2018-04-22T14:00:51.408Z,4.70
2018-04-22T14:03:55.270Z,4.00
2018-04-22T14:06:59.926Z,3.70
2018-04-22T14:10:03.751Z,3.57
2018-04-22T14:13:07.560Z,3.60
2018-04-22T14:16:12.233Z,3.20
2018-04-22T14:19:16.737Z,2.93
2018-04-22T14:22:20.584Z,4.17
2018-04-22T14:25:25.976Z,3.23
2018-04-22T14:28:29.777Z,9.93
2018-04-22T14:31:33.605Z,8.73
2018-04-22T14:34:37.408Z,7.50
2018-04-22T14:37:41.243Z,7.90
2018-04-22T14:40:45.066Z,10.53
2018-04-22T14:47:35.217Z,20.15
2018-04-22T14:50:39.091Z,22.80
2018-04-22T14:53:42.963Z,39.67
2018-04-22T14:56:47.512Z,36.13
2018-04-22T14:59:52.061Z,53.37
2018-04-22T15:02:55.880Z,49.20
2018-04-22T15:05:59.719Z,79.63
2018-04-22T15:09:03.538Z,111.27
2018-04-22T15:12:07.364Z,112.40
2018-04-22T15:15:11.170Z,127.93
2018-04-22T15:18:15.013Z,140.93
2018-04-22T15:21:18.830Z,138.40
2018-04-22T15:24:22.625Z,142.53
2018-04-22T15:27:27.176Z,147.57
2018-04-22T15:30:31.025Z,150.57
2018-04-22T15:33:35.072Z,151.73
2018-04-22T15:36:38.961Z,155.87
2018-04-22T15:39:42.778Z,158.17
2018-04-22T15:42:47.442Z,154.10
2018-04-22T15:45:51.369Z,152.97
2018-04-22T15:48:55.513Z,164.00
2018-04-22T15:51:59.345Z,173.70
2018-04-22T15:55:03.171Z,187.17
2018-04-22T15:58:07.036Z,190.97
2018-04-22T16:01:10.932Z,194.50
2018-04-22T16:04:14.724Z,201.50
2018-04-22T16:07:18.644Z,200.00
2018-04-22T16:10:22.475Z,200.93
2018-04-22T16:13:26.295Z,202.97
2018-04-22T16:16:30.116Z,206.27
2018-04-22T16:19:33.928Z,211.27
2018-04-22T16:22:38.482Z,217.80
2018-04-22T16:25:42.282Z,208.97
2018-04-22T16:28:46.135Z,211.80
2018-04-22T16:31:49.994Z,218.93
2018-04-22T16:34:53.819Z,230.47
2018-04-22T16:37:57.755Z,241.60
2018-04-22T16:41:01.657Z,239.53
2018-04-22T16:44:05.743Z,239.50
2018-04-22T16:47:09.628Z,242.87
2018-04-22T16:50:13.429Z,243.03
2018-04-22T16:53:17.342Z,240.47
2018-04-22T16:56:21.169Z,241.10
2018-04-22T16:59:24.957Z,237.90
2018-04-22T17:02:28.793Z,236.33
2018-04-22T17:05:34.424Z,234.33
2018-04-22T17:08:38.258Z,236.73
2018-04-22T17:11:42.080Z,234.60
2018-04-22T17:14:45.951Z,234.87
2018-04-22T17:17:50.505Z,241.97
2018-04-22T17:20:54.300Z,246.53
2018-04-22T17:23:58.151Z,243.83
2018-04-22T17:27:01.974Z,249.23
2018-04-22T17:30:05.782Z,268.10
2018-04-22T17:33:10.400Z,267.30
2018-04-22T17:36:14.197Z,268.80
2018-04-22T17:39:18.041Z,283.87
2018-04-22T17:42:21.909Z,266.47
2018-04-22T17:45:26.461Z,281.93
2018-04-22T17:48:30.280Z,288.57
2018-04-22T17:51:34.122Z,277.07
2018-04-22T17:54:37.935Z,285.60
2018-04-22T17:57:41.874Z,285.53
2018-04-22T18:00:45.692Z,276.17
2018-04-22T18:03:49.510Z,283.57
2018-04-22T18:06:53.306Z,281.23
2018-04-22T18:09:57.858Z,286.43
2018-04-22T18:13:02.428Z,287.70
2018-04-22T18:16:06.237Z,282.47
2018-04-22T18:19:10.103Z,278.43
2018-04-22T18:22:13.934Z,275.97
2018-04-22T18:25:18.513Z,275.27
2018-04-22T18:28:23.073Z,266.40
2018-04-22T18:31:26.874Z,260.90
2018-04-22T18:34:31.433Z,262.83
2018-04-22T18:37:35.261Z,264.07
2018-04-22T18:40:39.083Z,261.27
2018-04-22T18:43:42.902Z,254.30
2018-04-22T18:46:47.458Z,256.17
2018-04-22T18:49:51.268Z,249.63
2018-04-22T18:52:55.921Z,246.03
2018-04-22T18:55:59.741Z,248.30
2018-04-22T18:59:03.616Z,252.73
2018-04-22T19:02:07.492Z,242.93
2018-04-22T19:05:11.367Z,242.50
2018-04-22T19:08:15.287Z,241.47
2018-04-22T19:11:19.070Z,236.13
2018-04-22T19:14:22.902Z,233.37
2018-04-22T19:17:26.721Z,236.97
2018-04-22T19:20:30.632Z,229.37
2018-04-22T19:23:35.213Z,225.40
2018-04-22T19:26:39.027Z,224.50
2018-04-22T19:29:42.878Z,225.17
2018-04-22T19:32:46.765Z,220.63
2018-04-22T19:35:50.592Z,221.17
2018-04-22T19:38:54.423Z,214.23
2018-04-22T19:41:58.233Z,211.83
2018-04-22T19:45:02.063Z,212.73
2018-04-22T19:48:05.903Z,207.77
2018-04-22T19:51:09.943Z,210.80
2018-04-22T19:54:13.778Z,210.60
2018-04-22T19:57:17.575Z,207.50
2018-04-22T20:00:21.389Z,211.00
2018-04-22T20:03:25.208Z,205.33
2018-04-22T20:06:29.022Z,205.43
2018-04-22T20:09:33.596Z,189.07
2018-04-22T20:12:38.795Z,198.53
2018-04-22T20:15:42.619Z,196.47
2018-04-22T20:18:46.430Z,193.87
2018-04-22T20:21:50.224Z,197.63
2018-04-22T20:24:54.147Z,192.00
2018-04-22T20:27:57.931Z,184.77
2018-04-22T20:31:02.492Z,186.57
2018-04-22T20:34:06.335Z,183.53
2018-04-22T20:37:10.132Z,183.80
2018-04-22T20:40:14.787Z,195.83
2018-04-22T20:43:20.500Z,184.40
2018-04-22T20:46:24.414Z,181.40
2018-04-22T20:49:29.334Z,192.07
2018-04-22T20:52:33.167Z,210.60
2018-04-22T20:55:36.995Z,240.57
2018-04-22T20:58:40.826Z,245.20
2018-04-22T21:01:44.641Z,257.17
2018-04-22T21:04:48.460Z,247.47
2018-04-22T21:07:52.254Z,244.60
2018-04-22T21:10:56.115Z,245.53
2018-04-22T21:13:59.935Z,240.20
2018-04-22T21:17:03.925Z,233.77
2018-04-22T21:20:08.701Z,251.60
2018-04-22T21:23:12.531Z,277.23
2018-04-22T21:26:16.356Z,331.20
2018-04-22T21:29:20.182Z,317.37
2018-04-22T21:32:23.999Z,321.43
2018-04-22T21:35:28.752Z,316.10
2018-04-22T21:38:32.565Z,315.10
2018-04-22T21:41:37.119Z,303.93
2018-04-22T21:44:40.947Z,294.90
2018-04-22T21:47:44.731Z,292.53
2018-04-22T21:50:48.553Z,292.37
2018-04-22T21:53:52.590Z,291.43
2018-04-22T21:56:56.384Z,291.20
2018-04-22T22:00:00.202Z,291.70
2018-04-22T22:03:04.418Z,282.63
2018-04-22T22:06:08.380Z,281.50
2018-04-22T22:09:12.204Z,271.00
2018-04-22T22:12:15.992Z,277.07
2018-04-22T22:15:19.809Z,270.77
2018-04-22T22:18:23.594Z,273.90
2018-04-22T22:21:27.398Z,269.40
2018-04-22T22:24:31.298Z,266.43
2018-04-22T22:27:35.136Z,264.27
2018-04-22T22:30:38.968Z,267.80
2018-04-22T22:33:42.775Z,273.40
2018-04-22T22:36:46.676Z,253.90
2018-04-22T22:39:50.490Z,255.90
2018-04-22T22:42:55.050Z,251.53
2018-04-22T22:45:58.865Z,252.00
2018-04-22T22:49:02.698Z,250.97
2018-04-22T22:52:06.669Z,247.10
2018-04-22T22:55:10.510Z,256.40
2018-04-22T22:58:14.372Z,242.63
2018-04-22T23:01:18.177Z,250.83
2018-04-22T23:04:22.715Z,246.60
2018-04-22T23:07:27.285Z,244.23
2018-04-22T23:10:31.101Z,236.77
2018-04-22T23:13:34.981Z,233.70
2018-04-22T23:16:38.826Z,244.23
2018-04-22T23:19:43.421Z,239.57
2018-04-22T23:22:47.221Z,236.33
2018-04-22T23:25:51.033Z,227.77
2018-04-22T23:28:55.564Z,230.97
2018-04-22T23:32:00.129Z,224.07
2018-04-22T23:35:04.232Z,229.63
2018-04-22T23:38:08.797Z,225.77
2018-04-22T23:41:12.627Z,227.87
2018-04-22T23:44:16.435Z,227.20
2018-04-22T23:47:21.113Z,225.00
2018-04-22T23:50:24.940Z,226.70
2018-04-22T23:53:28.741Z,218.53
2018-04-22T23:56:33.574Z,218.00
2018-04-22T23:59:38.330Z,220.87
